Estación Meteorológica Peña el Pijo (Robertgarden) [ 12/09/19 17:18:21 CET ]

Fecha Hora Presion(HPa) Temp (°C) Humedad % Rocio (°C) Viento ( m/s) Direccion Lluvia 1Hora(mm) Lluvia 24H(mm) LLuvia Total(mm)
2019-Sep-14 01:01:51 1016.300 14.1 93 13.0       53.87 482.48
2019-Sep-14 02:02:01 1015.800 13.8 93 12.7       53.87 482.48
2019-Sep-14 03:02:13 1015.100 13.5 93 12.4       51.28 482.48
2019-Sep-14 04:02:04 1014.200 13.3 93 12.2       45.58 482.48
2019-Sep-14 05:02:00 1014.100 13.3 93 12.2       40.92 482.48
2019-Sep-14 06:03:33 1013.800 13.1 93 12.0       34.70 482.48
2019-Sep-14 07:01:50 1013.100 12.8 93 11.7       30.04 482.48
2019-Sep-14 08:01:48 1013.300 12.5 93 11.4       27.97 482.48
2019-Sep-14 09:01:53 1013.400 13.2 93 12.1       26.93 482.48
2019-Sep-14 10:01:46 1013.800 13.8 93 12.7       25.90 482.48
2019-Sep-14 11:01:49 1014.500 14.9 94 13.9       25.90 482.48
2019-Sep-14 12:01:47 1014.700 15.3 92 14.0       25.90 482.48
2019-Sep-14 13:01:52 1014.600 15.8 90 14.2       25.90 482.48
2019-Sep-14 14:02:01 1014.200 16.6 87 14.4       25.90 482.48
2019-Sep-14 15:01:38 1013.700 16.5 87 14.3       25.90 482.48
2019-Sep-14 16:01:37 1013.100 16.8 86 14.4       16.57 482.48
2019-Sep-14 17:01:49 1012.900 16.8 86 14.4       13.46 482.48
2019-Sep-14 18:01:51 1012.700 16.4 88 14.4       13.46 482.48
2019-Sep-14 19:01:34 1012.700 16.2 89 14.4       13.46 482.48
2019-Sep-14 20:01:50 1012.800 16.2 90 14.6       2.07 482.48
2019-Sep-14 21:01:32 1013.000 15.9 90 14.3       1.03 482.48
2019-Sep-14 22:01:35 1013.500 15.9 91 14.5       1.03 482.48
2019-Sep-14 23:01:47 1013.600 15.9 92 14.6         482.48

Temperatura Máxima:16°    Temperatura Mínima:12°
Presión Máxima:1016.300 Hpa    Presión Mínima:1012.700 Hpa


Volver